Ben-my-chree — MXLG6 — position and weather

sailwx.info

Track history (hours):
 
Tides and Currents Weather Stations Pressure Air Temp Water Temp Dewpoint Dewpoint Depression Visibility Wind Speed Wind Dir Waves Ship Positions

Ben-my-chree

Operator: The Isle of Man Steam Packet Co Ltd

Last reported at 2018-Jun-21 15:53 UTC. Time now 2018-Jun-21 16:27 UTC.
Position N 53°56' W 003°12'.

Length 120 m; draft 5 m.

Type: Passenger vessel. MMSI: 234983000.

Date/timePositionNaut miles runAvg speedWind from/ knotsBaromVisibWave heightAir tempDewpointWater temp
2018-Jun-21 15:53N 53°56' W 003°12'615.7
2018-Jun-21 15:30N 53°58' W 003°03'6 2.5
2018-Jun-21 13:11N 54°02' W 002°55'3 8.4
2018-Jun-21 12:47N 53°60' W 002°60'3 9.2
2018-Jun-21 12:25N 53°57' W 003°04'614.7
2018-Jun-21 12:00N 53°56' W 003°14'918.2
2018-Jun-21 11:30N 53°56' W 003°29'917.9
2018-Jun-21 11:00N 53°59' W 003°43'8 1.1
2018-Jun-21 03:07N 53°56' W 003°30'215.7
2018-Jun-21 03:00N 53°56' W 003°26'915.4
2018-Jun-21 02:23N 53°56' W 003°11'615.5
2018-Jun-21 01:59N 53°58' W 003°01'5 1.9
2018-Jun-20 23:27N 54°02' W 002°55'715.7
2018-Jun-20 22:59N 53°57' W 003°05'817.6
2018-Jun-20 22:30N 53°55' W 003°19'917.5
2018-Jun-20 22:01N 53°56' W 003°33'918.1
2018-Jun-20 21:29N 53°60' W 003°48'14 2.3
2018-Jun-20 15:24N 53°56' W 003°26'816.3
2018-Jun-20 14:54N 53°55' W 003°13'5 1.3
2018-Jun-20 11:21N 53°57' W 003°05'617.5
2018-Jun-20 11:01N 53°56' W 003°15'918.1
2018-Jun-20 10:30N 53°56' W 003°31'918.0
2018-Jun-20 09:59N 53°59' W 003°45'10 1.3
2018-Jun-20 02:32N 53°56' W 003°29'015.8
2018-Jun-20 02:31N 53°56' W 003°29'1016.0
2018-Jun-20 01:55N 53°56' W 003°13'714.8
2018-Jun-20 01:25N 53°59' W 003°01'5 2.1
2018-Jun-19 23:08N 54°02' W 002°56'414.4
2018-Jun-19 22:52N 53°59' W 003°00'618.1
2018-Jun-19 22:30N 53°56' W 003°10'816.8
2018-Jun-19 22:00N 53°55' W 003°24'815.5
2018-Jun-19 21:30N 53°57' W 003°36'915.6
2018-Jun-19 20:56N 54°00' W 003°51'14 2.2
2018-Jun-19 14:43N 53°56' W 003°29'917.5
2018-Jun-19 14:11N 53°56' W 003°13'316.9
2018-Jun-19 14:00N 53°56' W 003°08'815.5
2018-Jun-19 13:30N 54°01' W 002°57'2 0.7
2018-Jun-19 11:14N 54°02' W 002°55'4 9.7
2018-Jun-19 10:50N 53°59' W 003°00'412.7
2018-Jun-19 10:30N 53°57' W 003°06'917.2
2018-Jun-19 10:00N 53°56' W 003°20'917.8
2018-Jun-19 09:30N 53°57' W 003°35'31 6.3
2018-Jun-19 04:29N 54°09' W 004°25'4417.8
2018-Jun-19 01:59N 53°56' W 003°13'815.8
2018-Jun-19 01:30N 53°59' W 003°01'4 1.4
2018-Jun-18 22:26N 54°02' W 002°55'613.8
2018-Jun-18 22:00N 53°58' W 003°03'714.9
2018-Jun-18 21:31N 53°55' W 003°15'816.3
2018-Jun-18 21:00N 53°55' W 003°28'916.9
2018-Jun-18 20:30N 53°59' W 003°42'8 1.3
2018-Jun-18 14:30N 53°56' W 003°29'917.4
2018-Jun-18 13:59N 53°56' W 003°14'816.0
2018-Jun-18 13:31N 53°58' W 003°02'5 1.9
2018-Jun-18 10:52N 54°02' W 002°55'616.8
2018-Jun-18 10:30N 53°58' W 003°03'919.0
2018-Jun-18 10:00N 53°55' W 003°19'1018.6
2018-Jun-18 09:30N 53°57' W 003°34'3 0.4
2018-Jun-18 02:30N 53°56' W 003°30'1017.6
2018-Jun-18 01:55N 53°56' W 003°12'716.5
2018-Jun-18 01:29N 53°59' W 003°01'5 1.3
2018-Jun-17 21:53N 54°02' W 002°56'615.7
2018-Jun-17 21:29N 53°58' W 003°04'918.4
2018-Jun-17 21:00N 53°55' W 003°18'918.5
2018-Jun-17 20:30N 53°57' W 003°34'918.4
2018-Jun-17 20:00N 53°60' W 003°48'12 2.1
2018-Jun-17 14:29N 53°55' W 003°30'918.6
2018-Jun-17 13:59N 53°56' W 003°14'817.1
2018-Jun-17 13:30N 53°59' W 003°01'4 1.6
2018-Jun-17 10:44N 54°02' W 002°55'416.9
2018-Jun-17 10:30N 53°59' W 003°00'1020.0
2018-Jun-17 10:00N 53°56' W 003°16'1019.5
2018-Jun-17 09:30N 53°56' W 003°32'1019.2
2018-Jun-17 09:00N 53°60' W 003°48'11 1.7
2018-Jun-17 02:23N 53°56' W 003°30'1018.3
2018-Jun-17 01:49N 53°56' W 003°12'617.5
2018-Jun-17 01:29N 53°58' W 003°03'6 1.8
2018-Jun-16 22:09N 54°02' W 002°56'416.2
2018-Jun-16 21:55N 53°59' W 003°00'820.4
2018-Jun-16 21:30N 53°55' W 003°13'1019.9
2018-Jun-16 21:00N 53°56' W 003°30'1019.3
2018-Jun-16 20:30N 53°59' W 003°45'918.6
2018-Jun-16 20:00N 54°02' W 003°60'19 3.4
2018-Jun-16 14:23N 53°56' W 003°29'1019.0
2018-Jun-16 13:52N 53°56' W 003°13'718.4
2018-Jun-16 13:30N 53°58' W 003°02'5 2.0
2018-Jun-16 10:50N 54°02' W 002°55'619.2
2018-Jun-16 10:30N 53°58' W 003°03'1020.1
2018-Jun-16 10:01N 53°55' W 003°20'918.9
2018-Jun-16 09:30N 53°57' W 003°35'4 0.6
2018-Jun-16 02:16N 53°56' W 003°29'1019.0
2018-Jun-16 01:46N 53°56' W 003°13'618.7
2018-Jun-16 01:28N 53°58' W 003°04'6 1.8
2018-Jun-15 22:03N 54°02' W 002°56'412.6
2018-Jun-15 21:45N 53°59' W 003°00'314.0
2018-Jun-15 21:31N 53°57' W 003°05'815.3
2018-Jun-15 21:01N 53°55' W 003°17'1019.5
2018-Jun-15 20:30N 53°57' W 003°34'2 0.4
2018-Jun-15 14:25N 53°56' W 003°31'1119.5
2018-Jun-15 13:52N 53°56' W 003°12'719.5
2018-Jun-15 13:30N 53°59' W 003°01'5 1.9
2018-Jun-15 10:53N 54°02' W 002°55'718.8
2018-Jun-15 10:30N 53°57' W 003°05'1020.1
2018-Jun-15 10:00N 53°56' W 003°21'1019.7
2018-Jun-15 09:30N 53°58' W 003°38'5 0.7
2018-Jun-15 02:18N 53°56' W 003°30'1018.9
2018-Jun-15 01:47N 53°56' W 003°13'519.3
2018-Jun-15 01:30N 53°57' W 003°04'7 1.8
2018-Jun-14 21:45N 54°02' W 002°55'416.8
2018-Jun-14 21:31N 53°59' W 003°00'1120.9
2018-Jun-14 21:00N 53°55' W 003°17'1019.8
2018-Jun-14 20:30N 53°57' W 003°34'1019.6
2018-Jun-14 20:00N 54°00' W 003°49'12 2.3
2018-Jun-14 14:43N 53°56' W 003°30'1019.0
2018-Jun-14 14:11N 53°56' W 003°13'319.5
2018-Jun-14 14:01N 53°57' W 003°07'9 4.3
2018-Jun-14 11:52N 54°02' W 002°55'412.3
2018-Jun-14 11:31N 53°59' W 003°01'918.4
2018-Jun-14 11:01N 53°55' W 003°15'918.6
2018-Jun-14 10:30N 53°55' W 003°31'1019.3
2018-Jun-14 09:58N 53°54' W 003°48'26 1.4
2018-Jun-13 16:07N 54°09' W 004°24'3518.6
2018-Jun-13 14:13N 53°56' W 003°28'719.4
2018-Jun-13 13:53N 53°56' W 003°17'720.1
2018-Jun-13 13:30N 53°57' W 003°05'7 2.8
2018-Jun-13 11:01N 54°02' W 002°55'0 9.3
2018-Jun-13 11:00N 54°02' W 002°56'917.7
2018-Jun-13 10:30N 53°56' W 003°07'918.7
2018-Jun-13 10:00N 53°56' W 003°23'918.4
2018-Jun-13 09:29N 53°58' W 003°39'7 1.0
2018-Jun-13 02:12N 53°55' W 003°28'819.6
2018-Jun-13 01:46N 53°56' W 003°13'520.4
2018-Jun-13 01:30N 53°57' W 003°05'7 1.9
2018-Jun-12 21:50N 54°02' W 002°55'717.2
2018-Jun-12 21:26N 53°57' W 003°04'819.4
2018-Jun-12 21:00N 53°55' W 003°18'1019.4
2018-Jun-12 20:30N 53°57' W 003°34'1119.5
2018-Jun-12 19:57N 54°00' W 003°51'24 4.0
2018-Jun-12 13:53N 53°56' W 003°11'11 4.0
2018-Jun-12 11:11N 54°02' W 002°55'413.8
2018-Jun-12 10:54N 53°59' W 003°00'717.7
2018-Jun-12 10:30N 53°56' W 003°10'918.2
2018-Jun-12 10:00N 53°56' W 003°26'1018.4
2018-Jun-12 09:29N 53°59' W 003°41'47 8.5
2018-Jun-12 03:57N 54°11' W 004°59'819.0
2018-Jun-12 03:30N 54°18' W 005°06'919.0
2018-Jun-12 03:01N 54°26' W 005°14'918.6
2018-Jun-12 02:30N 54°34' W 005°21'917.8
2018-Jun-12 02:01N 54°42' W 005°29'917.8
2018-Jun-12 01:31N 54°42' W 005°45'713.4
2018-Jun-12 00:58N 54°37' W 005°54'1 1.3
2018-Jun-12 00:29N 54°37' W 005°55'0 0.0
2018-Jun-11 23:59N 54°37' W 005°55'0 0.9
2018-Jun-11 23:30N 54°37' W 005°54'510.9
2018-Jun-11 23:01N 54°41' W 005°48'917.4
2018-Jun-11 22:31N 54°43' W 005°34'917.5
2018-Jun-11 22:00N 54°36' W 005°23'917.9
2018-Jun-11 21:31N 54°29' W 005°16'917.9
2018-Jun-11 21:01N 54°21' W 005°08'917.5
2018-Jun-11 20:31N 54°13' W 005°00'  
Track history (hours):
 
Tides and Currents Weather Stations Pressure Air Temp Water Temp Dewpoint Dewpoint Depression Visibility Wind Speed Wind Dir Waves Ship Positions

Ben-my-chree

Operator: The Isle of Man Steam Packet Co Ltd

Last reported at 2018-Jun-21 15:53 UTC. Time now 2018-Jun-21 16:27 UTC.
Position N 53°56' W 003°12'.

Length 120 m; draft 5 m.

Type: Passenger vessel. MMSI: 234983000.

Date/timePositionNaut miles runAvg speedWind from/ knotsBaromVisibWave heightAir tempDewpointWater temp
2018-Jun-21 15:53N 53°56' W 003°12'615.7
2018-Jun-21 15:30N 53°58' W 003°03'6 2.5
2018-Jun-21 13:11N 54°02' W 002°55'3 8.4
2018-Jun-21 12:47N 53°60' W 002°60'3 9.2
2018-Jun-21 12:25N 53°57' W 003°04'614.7
2018-Jun-21 12:00N 53°56' W 003°14'918.2
2018-Jun-21 11:30N 53°56' W 003°29'917.9
2018-Jun-21 11:00N 53°59' W 003°43'8 1.1
2018-Jun-21 03:07N 53°56' W 003°30'215.7
2018-Jun-21 03:00N 53°56' W 003°26'915.4
2018-Jun-21 02:23N 53°56' W 003°11'615.5
2018-Jun-21 01:59N 53°58' W 003°01'5 1.9
2018-Jun-20 23:27N 54°02' W 002°55'715.7
2018-Jun-20 22:59N 53°57' W 003°05'817.6
2018-Jun-20 22:30N 53°55' W 003°19'917.5
2018-Jun-20 22:01N 53°56' W 003°33'918.1
2018-Jun-20 21:29N 53°60' W 003°48'14 2.3
2018-Jun-20 15:24N 53°56' W 003°26'816.3
2018-Jun-20 14:54N 53°55' W 003°13'5 1.3
2018-Jun-20 11:21N 53°57' W 003°05'617.5
2018-Jun-20 11:01N 53°56' W 003°15'918.1
2018-Jun-20 10:30N 53°56' W 003°31'918.0
2018-Jun-20 09:59N 53°59' W 003°45'10 1.3
2018-Jun-20 02:32N 53°56' W 003°29'015.8
2018-Jun-20 02:31N 53°56' W 003°29'1016.0
2018-Jun-20 01:55N 53°56' W 003°13'714.8
2018-Jun-20 01:25N 53°59' W 003°01'5 2.1
2018-Jun-19 23:08N 54°02' W 002°56'414.4
2018-Jun-19 22:52N 53°59' W 003°00'618.1
2018-Jun-19 22:30N 53°56' W 003°10'816.8
2018-Jun-19 22:00N 53°55' W 003°24'815.5
2018-Jun-19 21:30N 53°57' W 003°36'915.6
2018-Jun-19 20:56N 54°00' W 003°51'14 2.2
2018-Jun-19 14:43N 53°56' W 003°29'917.5
2018-Jun-19 14:11N 53°56' W 003°13'316.9
2018-Jun-19 14:00N 53°56' W 003°08'815.5
2018-Jun-19 13:30N 54°01' W 002°57'2 0.7
2018-Jun-19 11:14N 54°02' W 002°55'4 9.7
2018-Jun-19 10:50N 53°59' W 003°00'412.7
2018-Jun-19 10:30N 53°57' W 003°06'917.2
2018-Jun-19 10:00N 53°56' W 003°20'917.8
2018-Jun-19 09:30N 53°57' W 003°35'31 6.3
2018-Jun-19 04:29N 54°09' W 004°25'4417.8
2018-Jun-19 01:59N 53°56' W 003°13'815.8
2018-Jun-19 01:30N 53°59' W 003°01'4 1.4
2018-Jun-18 22:26N 54°02' W 002°55'613.8
2018-Jun-18 22:00N 53°58' W 003°03'714.9
2018-Jun-18 21:31N 53°55' W 003°15'816.3
2018-Jun-18 21:00N 53°55' W 003°28'916.9
2018-Jun-18 20:30N 53°59' W 003°42'8 1.3
2018-Jun-18 14:30N 53°56' W 003°29'917.4
2018-Jun-18 13:59N 53°56' W 003°14'816.0
2018-Jun-18 13:31N 53°58' W 003°02'5 1.9
2018-Jun-18 10:52N 54°02' W 002°55'616.8
2018-Jun-18 10:30N 53°58' W 003°03'919.0
2018-Jun-18 10:00N 53°55' W 003°19'1018.6
2018-Jun-18 09:30N 53°57' W 003°34'3 0.4
2018-Jun-18 02:30N 53°56' W 003°30'1017.6
2018-Jun-18 01:55N 53°56' W 003°12'716.5
2018-Jun-18 01:29N 53°59' W 003°01'5 1.3
2018-Jun-17 21:53N 54°02' W 002°56'615.7
2018-Jun-17 21:29N 53°58' W 003°04'918.4
2018-Jun-17 21:00N 53°55' W 003°18'918.5
2018-Jun-17 20:30N 53°57' W 003°34'918.4
2018-Jun-17 20:00N 53°60' W 003°48'12 2.1
2018-Jun-17 14:29N 53°55' W 003°30'918.6
2018-Jun-17 13:59N 53°56' W 003°14'817.1
2018-Jun-17 13:30N 53°59' W 003°01'4 1.6
2018-Jun-17 10:44N 54°02' W 002°55'416.9
2018-Jun-17 10:30N 53°59' W 003°00'1020.0
2018-Jun-17 10:00N 53°56' W 003°16'1019.5
2018-Jun-17 09:30N 53°56' W 003°32'1019.2
2018-Jun-17 09:00N 53°60' W 003°48'11 1.7
2018-Jun-17 02:23N 53°56' W 003°30'1018.3
2018-Jun-17 01:49N 53°56' W 003°12'617.5
2018-Jun-17 01:29N 53°58' W 003°03'6 1.8
2018-Jun-16 22:09N 54°02' W 002°56'416.2
2018-Jun-16 21:55N 53°59' W 003°00'820.4
2018-Jun-16 21:30N 53°55' W 003°13'1019.9
2018-Jun-16 21:00N 53°56' W 003°30'1019.3
2018-Jun-16 20:30N 53°59' W 003°45'918.6
2018-Jun-16 20:00N 54°02' W 003°60'19 3.4
2018-Jun-16 14:23N 53°56' W 003°29'1019.0
2018-Jun-16 13:52N 53°56' W 003°13'718.4
2018-Jun-16 13:30N 53°58' W 003°02'5 2.0
2018-Jun-16 10:50N 54°02' W 002°55'619.2
2018-Jun-16 10:30N 53°58' W 003°03'1020.1
2018-Jun-16 10:01N 53°55' W 003°20'918.9
2018-Jun-16 09:30N 53°57' W 003°35'4 0.6
2018-Jun-16 02:16N 53°56' W 003°29'1019.0
2018-Jun-16 01:46N 53°56' W 003°13'618.7
2018-Jun-16 01:28N 53°58' W 003°04'6 1.8
2018-Jun-15 22:03N 54°02' W 002°56'412.6
2018-Jun-15 21:45N 53°59' W 003°00'314.0
2018-Jun-15 21:31N 53°57' W 003°05'815.3
2018-Jun-15 21:01N 53°55' W 003°17'1019.5
2018-Jun-15 20:30N 53°57' W 003°34'2 0.4
2018-Jun-15 14:25N 53°56' W 003°31'1119.5
2018-Jun-15 13:52N 53°56' W 003°12'719.5
2018-Jun-15 13:30N 53°59' W 003°01'5 1.9
2018-Jun-15 10:53N 54°02' W 002°55'718.8
2018-Jun-15 10:30N 53°57' W 003°05'1020.1
2018-Jun-15 10:00N 53°56' W 003°21'1019.7
2018-Jun-15 09:30N 53°58' W 003°38'5 0.7
2018-Jun-15 02:18N 53°56' W 003°30'1018.9
2018-Jun-15 01:47N 53°56' W 003°13'519.3
2018-Jun-15 01:30N 53°57' W 003°04'7 1.8
2018-Jun-14 21:45N 54°02' W 002°55'416.8
2018-Jun-14 21:31N 53°59' W 003°00'1120.9
2018-Jun-14 21:00N 53°55' W 003°17'1019.8
2018-Jun-14 20:30N 53°57' W 003°34'1019.6
2018-Jun-14 20:00N 54°00' W 003°49'12 2.3
2018-Jun-14 14:43N 53°56' W 003°30'1019.0
2018-Jun-14 14:11N 53°56' W 003°13'319.5
2018-Jun-14 14:01N 53°57' W 003°07'9 4.3
2018-Jun-14 11:52N 54°02' W 002°55'412.3
2018-Jun-14 11:31N 53°59' W 003°01'918.4
2018-Jun-14 11:01N 53°55' W 003°15'918.6
2018-Jun-14 10:30N 53°55' W 003°31'1019.3
2018-Jun-14 09:58N 53°54' W 003°48'26 1.4
2018-Jun-13 16:07N 54°09' W 004°24'3518.6
2018-Jun-13 14:13N 53°56' W 003°28'719.4
2018-Jun-13 13:53N 53°56' W 003°17'720.1
2018-Jun-13 13:30N 53°57' W 003°05'7 2.8
2018-Jun-13 11:01N 54°02' W 002°55'0 9.3
2018-Jun-13 11:00N 54°02' W 002°56'917.7
2018-Jun-13 10:30N 53°56' W 003°07'918.7
2018-Jun-13 10:00N 53°56' W 003°23'918.4
2018-Jun-13 09:29N 53°58' W 003°39'7 1.0
2018-Jun-13 02:12N 53°55' W 003°28'819.6
2018-Jun-13 01:46N 53°56' W 003°13'520.4
2018-Jun-13 01:30N 53°57' W 003°05'7 1.9
2018-Jun-12 21:50N 54°02' W 002°55'717.2
2018-Jun-12 21:26N 53°57' W 003°04'819.4
2018-Jun-12 21:00N 53°55' W 003°18'1019.4
2018-Jun-12 20:30N 53°57' W 003°34'1119.5
2018-Jun-12 19:57N 54°00' W 003°51'24 4.0
2018-Jun-12 13:53N 53°56' W 003°11'11 4.0
2018-Jun-12 11:11N 54°02' W 002°55'413.8
2018-Jun-12 10:54N 53°59' W 003°00'717.7
2018-Jun-12 10:30N 53°56' W 003°10'918.2
2018-Jun-12 10:00N 53°56' W 003°26'1018.4
2018-Jun-12 09:29N 53°59' W 003°41'47 8.5
2018-Jun-12 03:57N 54°11' W 004°59'819.0
2018-Jun-12 03:30N 54°18' W 005°06'919.0
2018-Jun-12 03:01N 54°26' W 005°14'918.6
2018-Jun-12 02:30N 54°34' W 005°21'917.8
2018-Jun-12 02:01N 54°42' W 005°29'917.8
2018-Jun-12 01:31N 54°42' W 005°45'713.4
2018-Jun-12 00:58N 54°37' W 005°54'1 1.3
2018-Jun-12 00:29N 54°37' W 005°55'0 0.0
2018-Jun-11 23:59N 54°37' W 005°55'0 0.9
2018-Jun-11 23:30N 54°37' W 005°54'510.9
2018-Jun-11 23:01N 54°41' W 005°48'917.4
2018-Jun-11 22:31N 54°43' W 005°34'917.5
2018-Jun-11 22:00N 54°36' W 005°23'917.9
2018-Jun-11 21:31N 54°29' W 005°16'917.9
2018-Jun-11 21:01N 54°21' W 005°08'917.5
2018-Jun-11 20:31N 54°13' W 005°00'  

Dump ship's entire track history